| time (UTC) | temp C | wind direction | speed KPH | gust KPH | rain 1hr cm | rain 24hr cm | rain mn cm | humidity % | barometer mb |
| 20260508100040 | 15 | 311 | 4.8 | 14.5 | 0.05 | 0.48 | 0.05 | 66 | 1015.3 |
| 20260508094537 | 15 | 0 | 0.0 | 4.8 | 0.05 | 0.48 | 0.05 | 67 | 1015.0 |
| 20260508093037 | 15 | 270 | 0.0 | 8.0 | 0.03 | 0.46 | 0.03 | 66 | 1015.0 |
| 20260508091534 | 15 | 343 | 3.2 | 6.4 | 0.00 | 0.43 | 0.00 | 67 | 1015.5 |
| 20260508090045 | 14 | 317 | 1.6 | 4.8 | 0.00 | 0.43 | 0.00 | 67 | 1015.2 |
| 20260508084537 | 14 | 87 | 1.6 | 3.2 | 0.00 | 0.43 | 0.00 | 67 | 1014.9 |
| 20260508083039 | 14 | 0 | 0.0 | 6.4 | 0.00 | 0.43 | 0.00 | 67 | 1014.5 |
| 20260508081539 | 14 | 82 | 4.8 | 11.3 | 0.00 | 0.43 | 0.00 | 67 | 1014.6 |
| 20260508080033 | 14 | 0 | 0.0 | 1.6 | 0.00 | 0.43 | 0.00 | 67 | 1014.1 |
| 20260508074534 | 14 | 0 | 0.0 | 3.2 | 0.00 | 0.43 | 0.00 | 67 | 1014.1 |
| 20260508073039 | 14 | 134 | 0.0 | 6.4 | 0.00 | 0.43 | 0.00 | 67 | 1013.9 |
| 20260508071540 | 14 | 0 | 0.0 | 0.0 | 0.00 | 0.43 | 0.00 | 67 | 1013.7 |
| 20260508070038 | 14 | 0 | 0.0 | 0.0 | 0.00 | 0.43 | 0.00 | 67 | 1013.7 |
| 20260508064556 | 13 | 0 | 0.0 | 0.0 | 0.00 | 0.43 | 0.00 | 67 | 1013.5 |
| 20260508063033 | 13 | 0 | 0.0 | 0.0 | 0.00 | 0.43 | 0.00 | 67 | 1013.6 |
| 20260508061534 | 13 | 0 | 0.0 | 0.0 | 0.00 | 0.43 | 0.00 | 66 | 1013.4 |
| 20260508060041 | 13 | 0 | 0.0 | 0.0 | 0.00 | 0.43 | 0.00 | 66 | 1013.0 |
| 20260508054603 | 13 | 292 | 1.6 | 4.8 | 0.00 | 0.43 | 0.00 | 67 | 1012.7 |
| 20260508053037 | 13 | 0 | 1.6 | 11.3 | 0.00 | 0.43 | 0.00 | 67 | 1012.7 |
| 20260508051537 | 13 | 0 | 0.0 | 4.8 | 0.00 | 0.43 | 0.00 | 67 | 1012.8 |
| 20260508050038 | 13 | 320 | 1.6 | 4.8 | 0.00 | 0.43 | 0.00 | 67 | 1012.5 |
| 20260508044537 | 12 | 0 | 0.0 | 4.8 | 0.00 | 0.43 | 0.00 | 67 | 1012.4 |
| 20260508043044 | 12 | 0 | 0.0 | 0.0 | 0.00 | 0.43 | 0.00 | 66 | 1012.1 |
| 20260508041538 | 12 | 0 | 0.0 | 0.0 | 0.00 | 0.43 | 0.00 | 65 | 1012.3 |
| 20260508040045 | 13 | 0 | 0.0 | 4.8 | 0.00 | 0.43 | 0.00 | 64 | 1012.2 |
| 20260508034535 | 13 | 71 | 3.2 | 8.0 | 0.00 | 0.43 | 0.00 | 63 | 1011.8 |
| 20260508033034 | 15 | 30 | 1.6 | 11.3 | 0.00 | 0.43 | 0.00 | 62 | 1011.9 |
| 20260508031549 | 15 | 296 | 8.0 | 16.1 | 0.00 | 0.43 | 0.00 | 62 | 1012.0 |
| 20260508030039 | 14 | 274 | 6.4 | 17.7 | 0.00 | 0.43 | 0.00 | 64 | 1012.4 |
| 20260508024535 | 14 | 279 | 6.4 | 16.1 | 0.00 | 0.43 | 0.00 | 66 | 1012.4 |
| 20260508023034 | 14 | 266 | 6.4 | 14.5 | 0.00 | 0.43 | 0.00 | 67 | 1012.4 |
| 20260508021541 | 13 | 288 | 6.4 | 16.1 | 0.00 | 0.43 | 0.00 | 68 | 1012.6 |
| 20260508020033 | 13 | 283 | 6.4 | 14.5 | 0.00 | 0.43 | 0.00 | 69 | 1012.6 |
| 20260508014534 | 13 | 290 | 4.8 | 9.7 | 0.00 | 0.43 | 0.00 | 68 | 1012.8 |
| 20260508013040 | 13 | 298 | 6.4 | 12.9 | 0.00 | 0.43 | 0.00 | 68 | 1013.0 |
| 20260508011541 | 13 | 287 | 4.8 | 12.9 | 0.00 | 0.43 | 0.00 | 68 | 1013.1 |
| 20260508010039 | 14 | 282 | 4.8 | 11.3 | 0.00 | 0.43 | 0.00 | 68 | 1013.2 |
| 20260508004540 | 14 | 0 | 0.0 | 4.8 | 0.00 | 0.43 | 0.00 | 68 | 1013.5 |
| 20260508003032 | 13 | 290 | 4.8 | 11.3 | 0.00 | 0.43 | 0.00 | 68 | 1013.9 |
| 20260508001539 | 13 | 0 | 3.2 | 9.7 | 0.00 | 0.43 | 0.00 | 68 | 1014.0 |
| 20260508000037 | 14 | 301 | 1.6 | 4.8 | 0.00 | 0.43 | 0.00 | 67 | 1014.1 |
| 20260507234544 | 14 | 279 | 4.8 | 11.3 | 0.00 | 0.43 | 0.00 | 68 | 1014.3 |
| 20260507233037 | 14 | 298 | 4.8 | 8.0 | 0.00 | 0.43 | 0.00 | 68 | 1014.4 |
| 20260507231542 | 14 | 279 | 4.8 | 14.5 | 0.00 | 0.43 | 0.00 | 68 | 1014.5 |
| 20260507230034 | 14 | 276 | 6.4 | 14.5 | 0.00 | 0.43 | 0.00 | 67 | 1014.4 |
| 20260507224533 | 14 | 258 | 6.4 | 11.3 | 0.00 | 0.43 | 0.00 | 67 | 1014.4 |
| 20260507223032 | 14 | 286 | 3.2 | 9.7 | 0.00 | 0.43 | 0.00 | 67 | 1014.4 |
| 20260507221535 | 15 | 288 | 8.0 | 12.9 | 0.00 | 0.43 | 0.00 | 66 | 1014.3 |
| 20260507220034 | 15 | 271 | 3.2 | 6.4 | 0.00 | 0.43 | 0.00 | 66 | 1014.1 |
| 20260507214540 | 15 | 252 | 1.6 | 4.8 | 0.00 | 0.43 | 0.43 | 65 | 1013.9 |
| 20260507213041 | 15 | 0 | 0.0 | 0.0 | 0.00 | 0.43 | 0.43 | 65 | 1014.0 |
| 20260507211545 | 15 | 0 | 0.0 | 1.6 | 0.00 | 0.43 | 0.43 | 65 | 1013.9 |
| 20260507210034 | 15 | 0 | 0.0 | 9.7 | 0.00 | 0.43 | 0.43 | 65 | 1013.8 |
| 20260507204532 | 15 | 159 | 1.6 | 8.0 | 0.00 | 0.43 | 0.43 | 64 | 1013.8 |
| 20260507203039 | 15 | 139 | 4.8 | 14.5 | 0.00 | 0.43 | 0.43 | 64 | 1013.8 |
| 20260507201538 | 15 | 0 | 0.0 | 12.9 | 0.00 | 0.43 | 0.43 | 65 | 1013.7 |
| 20260507200037 | 15 | 173 | 4.8 | 12.9 | 0.00 | 0.43 | 0.43 | 64 | 1013.7 |
| 20260507194534 | 15 | 191 | 6.4 | 16.1 | 0.00 | 0.43 | 0.43 | 64 | 1013.3 |
| 20260507193035 | 15 | 132 | 4.8 | 12.9 | 0.00 | 0.43 | 0.43 | 64 | 1013.0 |
| 20260507191538 | 16 | 137 | 4.8 | 12.9 | 0.00 | 0.43 | 0.43 | 64 | 1012.8 |
| 20260507190039 | 16 | 140 | 3.2 | 12.9 | 0.00 | 0.43 | 0.43 | 64 | 1012.6 |
| 20260507184535 | 16 | 121 | 6.4 | 12.9 | 0.00 | 0.43 | 0.43 | 63 | 1012.5 |
| 20260507183035 | 16 | 134 | 8.0 | 14.5 | 0.08 | 0.43 | 0.43 | 63 | 1012.2 |
| 20260507181532 | 16 | 144 | 3.2 | 9.7 | 0.36 | 0.43 | 0.43 | 63 | 1012.0 |
| 20260507180033 | 16 | 146 | 3.2 | 12.9 | 0.36 | 0.43 | 0.43 | 64 | 1012.0 |
| 20260507174549 | 16 | 148 | 3.2 | 9.7 | 0.36 | 0.43 | 0.43 | 63 | 1012.2 |
| 20260507173033 | 16 | 0 | 1.6 | 9.7 | 0.28 | 0.36 | 0.36 | 63 | 1012.3 |
| 20260507171542 | 17 | 138 | 1.6 | 12.9 | 0.00 | 0.08 | 0.08 | 62 | 1012.1 |
| 20260507170039 | 17 | 56 | 6.4 | 16.1 | 0.05 | 0.08 | 0.08 | 61 | 1011.7 |
| 20260507164539 | 17 | 15 | 4.8 | 16.1 | 0.08 | 0.08 | 0.08 | 61 | 1011.7 |
| 20260507163037 | 17 | 0 | 3.2 | 9.7 | 0.08 | 0.08 | 0.08 | 61 | 1011.4 |
| 20260507161540 | 17 | 281 | 4.8 | 14.5 | 0.05 | 0.05 | 0.05 | 61 | 1011.1 |
| 20260507160048 | 17 | 260 | 11.3 | 19.3 | 0.00 | 0.00 | 0.00 | 59 | 1011.1 |
| 20260507154539 | 18 | 244 | 9.7 | 19.3 | 0.00 | 0.00 | 0.00 | 58 | 1011.0 |
| 20260507153038 | 18 | 360 | 16.1 | 24.1 | 0.00 | 0.00 | 0.00 | 56 | 1011.0 |
| 20260507151538 | 20 | 194 | 1.6 | 11.3 | 0.00 | 0.00 | 0.00 | 57 | 1011.2 |
| 20260507150039 | 20 | 144 | 3.2 | 11.3 | 0.00 | 0.00 | 0.00 | 56 | 1011.3 |
| 20260507144537 | 19 | 149 | 4.8 | 11.3 | 0.00 | 0.00 | 0.00 | 56 | 1011.1 |
| 20260507143037 | 19 | 239 | 4.8 | 12.9 | 0.00 | 0.00 | 0.00 | 57 | 1011.0 |
| 20260507141538 | 19 | 161 | 11.3 | 19.3 | 0.00 | 0.00 | 0.00 | 56 | 1011.0 |
| 20260507140045 | 19 | 133 | 11.3 | 22.5 | 0.00 | 0.00 | 0.00 | 55 | 1011.0 |
| 20260507134536 | 19 | 140 | 12.9 | 27.4 | 0.00 | 0.00 | 0.00 | 54 | 1011.0 |
| 20260507133034 | 20 | 149 | 12.9 | 24.1 | 0.00 | 0.00 | 0.00 | 52 | 1011.2 |
| 20260507131603 | 20 | 143 | 16.1 | 29.0 | 0.00 | 0.00 | 0.00 | 49 | 1011.1 |
| 20260507130034 | 21 | 132 | 12.9 | 27.4 | 0.00 | 0.00 | 0.00 | 46 | 1011.4 |
| 20260507124549 | 21 | 129 | 9.7 | 19.3 | 0.00 | 0.00 | 0.00 | 46 | 1011.3 |
| 20260507123043 | 21 | 101 | 9.7 | 22.5 | 0.00 | 0.00 | 0.00 | 46 | 1011.5 |
| 20260507121541 | 21 | 48 | 9.7 | 27.4 | 0.00 | 0.00 | 0.00 | 46 | 1011.7 |
| 20260507120039 | 21 | 125 | 11.3 | 24.1 | 0.00 | 0.00 | 0.00 | 46 | 1011.8 |
| 20260507114533 | 20 | 119 | 9.7 | 19.3 | 0.00 | 0.00 | 0.00 | 48 | 1011.7 |
| 20260507113102 | 20 | 57 | 9.7 | 22.5 | 0.00 | 0.00 | 0.00 | 48 | 1011.8 |
| 20260507111536 | 20 | 68 | 11.3 | 20.9 | 0.00 | 0.00 | 0.00 | 49 | 1012.0 |
| 20260507110038 | 20 | 65 | 9.7 | 22.5 | 0.00 | 0.00 | 0.00 | 49 | 1012.0 |
| 20260507104539 | 21 | 90 | 11.3 | 20.9 | 0.00 | 0.00 | 0.00 | 49 | 1012.1 |
| 20260507103038 | 21 | 74 | 8.0 | 24.1 | 0.00 | 0.00 | 0.00 | 49 | 1012.3 |
| 20260507101538 | 21 | 41 | 11.3 | 24.1 | 0.00 | 0.00 | 0.00 | 49 | 1012.2 |